<?xml version="1.0" encoding="UTF-8" standalone="no" ?>
<gpx xmlns="http://www.topografix.com/GPX/1/1" xmlns:xsi="http://www.w3.org/2001/XMLSchema-instance" xsi:schemaLocation="http://www.topografix.com/GPX/1/1 http://www.topografix.com/GPX/1/1/gpx.xsd" version="1.1" creator="VisuGPX - https://www.visugpx.com">
  <metadata>
    <name>AVIRON FONTAINEBLEAU MORET</name>
    <desc><![CDATA[RANDO JAZZ ACCOMPAGNANTS J1-J2]]></desc>
  </metadata>
  <trk>
    <name><![CDATA[AVIRON MORET]]></name>
    <trkseg>
      <trkpt lat="48.45092" lon="2.76327">
        <ele>53.8</ele>
        <time>2019-06-29T16:16:53Z</time>
      </trkpt>
      <trkpt lat="48.44516" lon="2.75432">
        <ele>46.9</ele>
        <time>2019-06-29T16:22:23Z</time>
      </trkpt>
      <trkpt lat="48.44484" lon="2.75438">
        <ele>40.4</ele>
        <time>2019-06-29T16:22:36Z</time>
      </trkpt>
      <trkpt lat="48.44175" lon="2.75069">
        <ele>49.2</ele>
        <time>2019-06-29T16:25:14Z</time>
      </trkpt>
      <trkpt lat="48.43592" lon="2.74744">
        <ele>50.6</ele>
        <time>2019-06-29T16:29:23Z</time>
      </trkpt>
      <trkpt lat="48.43002" lon="2.74727">
        <ele>39.8</ele>
        <time>2019-06-29T16:33:19Z</time>
      </trkpt>
      <trkpt lat="48.42948" lon="2.7424">
        <ele>59.1</ele>
        <time>2019-06-29T16:35:31Z</time>
      </trkpt>
      <trkpt lat="48.42438" lon="2.74357">
        <ele>56.1</ele>
        <time>2019-06-29T16:38:57Z</time>
      </trkpt>
      <trkpt lat="48.4142" lon="2.74684">
        <ele>75.9</ele>
        <time>2019-06-29T16:45:54Z</time>
      </trkpt>
      <trkpt lat="48.41154" lon="2.74981">
        <ele>77.2</ele>
        <time>2019-06-29T16:48:06Z</time>
      </trkpt>
      <trkpt lat="48.40996" lon="2.74842">
        <ele>97.5</ele>
        <time>2019-06-29T16:49:19Z</time>
      </trkpt>
      <trkpt lat="48.40871" lon="2.74743">
        <ele>98.8</ele>
        <time>2019-06-29T16:50:16Z</time>
      </trkpt>
      <trkpt lat="48.40694" lon="2.74392">
        <ele>104.3</ele>
        <time>2019-06-29T16:52:13Z</time>
      </trkpt>
      <trkpt lat="48.40677" lon="2.74337">
        <ele>104.4</ele>
        <time>2019-06-29T16:52:29Z</time>
      </trkpt>
      <trkpt lat="48.40625" lon="2.74312">
        <ele>103.7</ele>
        <time>2019-06-29T16:52:51Z</time>
      </trkpt>
      <trkpt lat="48.40549" lon="2.74139">
        <ele>96.8</ele>
        <time>2019-06-29T16:53:46Z</time>
      </trkpt>
      <trkpt lat="48.40442" lon="2.73797">
        <ele>100.1</ele>
        <time>2019-06-29T16:55:27Z</time>
      </trkpt>
      <trkpt lat="48.40254" lon="2.73407">
        <ele>99.6</ele>
        <time>2019-06-29T16:57:35Z</time>
      </trkpt>
      <trkpt lat="48.40093" lon="2.73427">
        <ele>95.5</ele>
        <time>2019-06-29T16:58:39Z</time>
      </trkpt>
      <trkpt lat="48.39978" lon="2.73417">
        <ele>85.7</ele>
        <time>2019-06-29T16:59:26Z</time>
      </trkpt>
      <trkpt lat="48.39965" lon="2.73412">
        <ele>87.8</ele>
        <time>2019-06-29T16:59:31Z</time>
      </trkpt>
      <trkpt lat="48.39968" lon="2.7357">
        <ele>94.7</ele>
        <time>2019-06-29T17:00:13Z</time>
      </trkpt>
      <trkpt lat="48.39873" lon="2.73565">
        <ele>81.6</ele>
        <time>2019-06-29T17:00:51Z</time>
      </trkpt>
      <trkpt lat="48.3983" lon="2.73536">
        <ele>78.2</ele>
        <time>2019-06-29T17:01:10Z</time>
      </trkpt>
      <trkpt lat="48.39583" lon="2.74006">
        <ele>82</ele>
        <time>2019-06-29T17:03:49Z</time>
      </trkpt>
      <trkpt lat="48.39232" lon="2.73397">
        <ele>97.3</ele>
        <time>2019-06-29T17:07:24Z</time>
      </trkpt>
      <trkpt lat="48.39139" lon="2.73468">
        <ele>97.5</ele>
        <time>2019-06-29T17:09:16Z</time>
      </trkpt>
      <trkpt lat="48.39042" lon="2.73584">
        <ele>88</ele>
        <time>2019-06-29T17:12:21Z</time>
      </trkpt>
      <trkpt lat="48.38968" lon="2.73531">
        <ele>89.7</ele>
        <time>2019-06-29T16:41:40Z</time>
      </trkpt>
      <trkpt lat="48.38598" lon="2.73825">
        <ele>84</ele>
        <time>2019-06-29T17:16:02Z</time>
      </trkpt>
      <trkpt lat="48.38189" lon="2.73575">
        <ele>78.2</ele>
        <time>2019-06-29T16:16:54Z</time>
      </trkpt>
      <trkpt lat="48.38162" lon="2.73548">
        <ele>78.9</ele>
        <time>2019-06-29T17:17:57Z</time>
      </trkpt>
      <trkpt lat="48.38086" lon="2.73486">
        <ele>92.7</ele>
        <time>2019-06-29T16:17:12Z</time>
      </trkpt>
      <trkpt lat="48.38017" lon="2.73446">
        <ele>89.4</ele>
        <time>2019-06-29T11:45:16Z</time>
      </trkpt>
      <trkpt lat="48.37991" lon="2.73739">
        <ele>81.5</ele>
        <time>2019-06-28T19:59:50Z</time>
      </trkpt>
      <trkpt lat="48.37973" lon="2.74165">
        <ele>77.7</ele>
        <time>2019-06-26T09:27:35Z</time>
      </trkpt>
      <trkpt lat="48.37916" lon="2.74682">
        <ele>89.1</ele>
        <time>2019-06-16T21:43:27Z</time>
      </trkpt>
      <trkpt lat="48.37895" lon="2.74904">
        <ele>106.4</ele>
        <time>2019-05-08T06:20:22Z</time>
      </trkpt>
      <trkpt lat="48.37799" lon="2.75158">
        <ele>94</ele>
        <time>2018-11-21T09:10:03Z</time>
      </trkpt>
      <trkpt lat="48.37811" lon="2.75399">
        <ele>98.9</ele>
        <time>2016-10-31T22:53:20Z</time>
      </trkpt>
      <trkpt lat="48.37732" lon="2.75666">
        <ele>95.9</ele>
        <time>2007-07-15T08:32:45Z</time>
      </trkpt>
      <trkpt lat="48.37681" lon="2.75848">
        <ele>99</ele>
        <time>2019-06-29T18:16:27Z</time>
      </trkpt>
      <trkpt lat="48.37681" lon="2.76065">
        <ele>96.9</ele>
        <time>2019-06-29T17:01:55Z</time>
      </trkpt>
      <trkpt lat="48.37648" lon="2.76351">
        <ele>90.7</ele>
        <time>2019-06-29T18:17:41Z</time>
      </trkpt>
      <trkpt lat="48.37582" lon="2.76524">
        <ele>95</ele>
        <time>2019-06-29T18:20:31Z</time>
      </trkpt>
      <trkpt lat="48.37552" lon="2.76759">
        <ele>98.1</ele>
        <time>2019-06-29T18:21:29Z</time>
      </trkpt>
      <trkpt lat="48.36985" lon="2.76714">
        <ele>92.2</ele>
        <time>2019-06-29T18:24:24Z</time>
      </trkpt>
      <trkpt lat="48.36729" lon="2.76682">
        <ele>96.9</ele>
        <time>2019-06-29T18:25:26Z</time>
      </trkpt>
      <trkpt lat="48.36355" lon="2.76646">
        <ele>93.9</ele>
        <time>2019-06-29T18:26:57Z</time>
      </trkpt>
      <trkpt lat="48.35842" lon="2.76617">
        <ele>81.4</ele>
        <time>2019-06-29T18:30:47Z</time>
      </trkpt>
      <trkpt lat="48.3549" lon="2.77075">
        <ele>92.3</ele>
        <time>2019-06-29T18:33:53Z</time>
      </trkpt>
      <trkpt lat="48.35388" lon="2.77266">
        <ele>91.1</ele>
        <time>2019-06-29T18:36:48Z</time>
      </trkpt>
      <trkpt lat="48.35254" lon="2.77293">
        <ele>93</ele>
        <time>2019-06-29T18:40:15Z</time>
      </trkpt>
      <trkpt lat="48.35032" lon="2.77449">
        <ele>94.1</ele>
        <time>2019-06-29T18:45:44Z</time>
      </trkpt>
      <trkpt lat="48.34917" lon="2.77435">
        <ele>89.8</ele>
        <time>2019-06-29T18:50:44Z</time>
      </trkpt>
      <trkpt lat="48.34715" lon="2.77435">
        <ele>79.3</ele>
        <time>2019-06-29T18:54:28Z</time>
      </trkpt>
      <trkpt lat="48.34641" lon="2.77449">
        <ele>74</ele>
        <time>2019-06-29T18:56:41Z</time>
      </trkpt>
      <trkpt lat="48.34464" lon="2.77235">
        <ele>54.4</ele>
        <time>2019-06-29T18:57:55Z</time>
      </trkpt>
      <trkpt lat="48.34211" lon="2.77435">
        <ele>50.7</ele>
        <time>2019-06-29T19:00:37Z</time>
      </trkpt>
      <trkpt lat="48.34067" lon="2.7747">
        <ele>41</ele>
        <time>2019-06-29T19:02:44Z</time>
      </trkpt>
      <trkpt lat="48.33754" lon="2.77927">
        <ele>41.5</ele>
        <time>2019-06-29T19:02:58Z</time>
      </trkpt>
      <trkpt lat="48.33599" lon="2.77948">
        <ele>41.1</ele>
        <time>2019-06-29T19:03:53Z</time>
      </trkpt>
      <trkpt lat="48.33435" lon="2.7814">
        <ele>47</ele>
        <time>2019-06-29T19:05:08Z</time>
      </trkpt>
      <trkpt lat="48.33717" lon="2.78884">
        <ele>46.1</ele>
        <time>2019-06-29T15:08:36Z</time>
      </trkpt>
      <trkpt lat="48.34161" lon="2.79194">
        <ele>48.4</ele>
        <time>2019-06-29T19:06:44Z</time>
      </trkpt>
      <trkpt lat="48.34479" lon="2.79644">
        <ele>42.8</ele>
        <time>2019-06-29T15:57:03Z</time>
      </trkpt>
      <trkpt lat="48.34811" lon="2.80242">
        <ele>47.1</ele>
        <time>2019-06-29T19:08:03Z</time>
      </trkpt>
      <trkpt lat="48.35231" lon="2.81304">
        <ele>50</ele>
        <time>2019-06-29T19:08:11Z</time>
      </trkpt>
      <trkpt lat="48.35741" lon="2.82127">
        <ele>42.9</ele>
        <time>2019-06-29T19:09:33Z</time>
      </trkpt>
      <trkpt lat="48.36232" lon="2.82535">
        <ele>47.4</ele>
        <time>2019-06-29T19:10:10Z</time>
      </trkpt>
      <trkpt lat="48.36536" lon="2.82732">
        <ele>51.4</ele>
        <time>2019-06-29T19:11:00Z</time>
      </trkpt>
      <trkpt lat="48.36718" lon="2.82683">
        <ele>47.5</ele>
        <time>2019-06-29T19:11:49Z</time>
      </trkpt>
      <trkpt lat="48.37109" lon="2.82523">
        <ele>51.7</ele>
        <time>2019-06-29T19:13:07Z</time>
      </trkpt>
      <trkpt lat="48.37235" lon="2.82094">
        <ele>49</ele>
        <time>2019-06-29T19:14:14Z</time>
      </trkpt>
      <trkpt lat="48.37249" lon="2.82066">
        <ele>48.1</ele>
        <time>2019-06-29T19:14:26Z</time>
      </trkpt>
      <trkpt lat="48.37266" lon="2.81877">
        <ele>48.8</ele>
        <time>2019-06-29T18:44:04Z</time>
      </trkpt>
      <trkpt lat="48.37284" lon="2.81895">
        <ele>45</ele>
        <time>2019-06-29T19:14:41Z</time>
      </trkpt>
      <trkpt lat="48.37318" lon="2.81912">
        <ele>36.6</ele>
        <time>2019-07-02T12:21:30Z</time>
      </trkpt>
      <trkpt lat="48.37414" lon="2.8189">
        <ele>44.1</ele>
        <time>2019-06-29T17:04:27Z</time>
      </trkpt>
      <trkpt lat="48.37501" lon="2.81867">
        <ele>43.1</ele>
        <time>2025-09-23T12:37:24Z</time>
      </trkpt>
      <trkpt lat="48.37604" lon="2.81867">
        <ele>45.1</ele>
        <time>2019-06-17T18:21:50Z</time>
      </trkpt>
      <trkpt lat="48.37669" lon="2.81852">
        <ele>39.3</ele>
        <time>2019-06-29T19:20:04Z</time>
      </trkpt>
      <trkpt lat="48.37798" lon="2.81752">
        <ele>36.7</ele>
        <time>2019-06-30T09:59:03Z</time>
      </trkpt>
      <trkpt lat="48.37846" lon="2.81661">
        <ele>46.5</ele>
        <time>2019-06-29T19:14:32Z</time>
      </trkpt>
      <trkpt lat="48.37879" lon="2.81604">
        <ele>46.5</ele>
        <time>2019-06-29T19:20:07Z</time>
      </trkpt>
      <trkpt lat="48.37901" lon="2.81543">
        <ele>44.3</ele>
        <time>2019-06-29T17:30:18Z</time>
      </trkpt>
      <trkpt lat="48.37925" lon="2.81484">
        <ele>41.4</ele>
        <time>2019-06-29T19:22:34Z</time>
      </trkpt>
      <trkpt lat="48.37965" lon="2.81382">
        <ele>38.9</ele>
        <time>2019-06-29T19:23:35Z</time>
      </trkpt>
      <trkpt lat="48.38017" lon="2.81257">
        <ele>39</ele>
        <time>2019-06-29T19:24:28Z</time>
      </trkpt>
      <trkpt lat="48.38041" lon="2.81178">
        <ele>40.1</ele>
        <time>2019-06-29T19:26:03Z</time>
      </trkpt>
      <trkpt lat="48.38114" lon="2.81029">
        <ele>39.3</ele>
        <time>2019-06-29T19:28:06Z</time>
      </trkpt>
      <trkpt lat="48.38262" lon="2.80791">
        <ele>37</ele>
        <time>2019-06-29T19:30:29Z</time>
      </trkpt>
      <trkpt lat="48.38327" lon="2.8071">
        <ele>36.4</ele>
        <time>2019-06-29T19:31:33Z</time>
      </trkpt>
      <trkpt lat="48.38364" lon="2.80655">
        <ele>36.2</ele>
        <time>2019-06-29T19:32:47Z</time>
      </trkpt>
      <trkpt lat="48.38383" lon="2.80625">
        <ele>36.3</ele>
        <time>2019-06-29T19:33:31Z</time>
      </trkpt>
      <trkpt lat="48.38397" lon="2.80605">
        <ele>36.2</ele>
        <time>2019-06-29T19:34:31Z</time>
      </trkpt>
      <trkpt lat="48.38409" lon="2.80581">
        <ele>36.2</ele>
        <time>2019-06-29T19:36:17Z</time>
      </trkpt>
      <trkpt lat="48.38386" lon="2.80538">
        <ele>36.2</ele>
        <time>2019-06-29T19:37:46Z</time>
      </trkpt>
      <trkpt lat="48.38401" lon="2.80509">
        <ele>34.2</ele>
        <time>2019-06-29T19:39:21Z</time>
      </trkpt>
      <trkpt lat="48.38408" lon="2.80506">
        <ele>34</ele>
        <time>2019-06-29T19:39:54Z</time>
      </trkpt>
      <trkpt lat="48.38417" lon="2.8051">
        <ele>34</ele>
        <time>2019-06-29T19:42:15Z</time>
      </trkpt>
      <trkpt lat="48.3845" lon="2.80538">
        <ele>34.9</ele>
        <time>2019-06-29T19:43:30Z</time>
      </trkpt>
      <trkpt lat="48.38489" lon="2.80469">
        <ele>36.5</ele>
        <time>2019-08-01T10:51:02Z</time>
      </trkpt>
      <trkpt lat="48.38521" lon="2.80369">
        <ele>37.5</ele>
        <time>2019-06-29T16:28:07Z</time>
      </trkpt>
      <trkpt lat="48.38568" lon="2.80275">
        <ele>36.6</ele>
        <time>2019-05-05T05:58:37Z</time>
      </trkpt>
      <trkpt lat="48.38632" lon="2.80218">
        <ele>34.6</ele>
        <time>2019-06-29T19:44:40Z</time>
      </trkpt>
      <trkpt lat="48.38659" lon="2.80302">
        <ele>38.1</ele>
        <time>2019-06-29T17:09:08Z</time>
      </trkpt>
      <trkpt lat="48.38932" lon="2.80773">
        <ele>39</ele>
        <time>2019-05-09T06:57:06Z</time>
      </trkpt>
      <trkpt lat="48.39053" lon="2.8065">
        <ele>47.4</ele>
        <time>2019-06-29T19:45:12Z</time>
      </trkpt>
      <trkpt lat="48.38953" lon="2.80522">
        <ele>34.6</ele>
        <time>2019-06-29T19:47:17Z</time>
      </trkpt>
      <trkpt lat="48.38846" lon="2.80204">
        <ele>37.8</ele>
        <time>2019-06-29T19:48:22Z</time>
      </trkpt>
      <trkpt lat="48.38867" lon="2.79742">
        <ele>37.2</ele>
        <time>2019-06-29T19:49:27Z</time>
      </trkpt>
      <trkpt lat="48.38871" lon="2.79204">
        <ele>40.9</ele>
        <time>2019-06-29T19:52:05Z</time>
      </trkpt>
      <trkpt lat="48.38992" lon="2.79048">
        <ele>36</ele>
        <time>2019-06-29T19:52:47Z</time>
      </trkpt>
      <trkpt lat="48.39178" lon="2.79037">
        <ele>42</ele>
        <time>2019-06-29T19:54:03Z</time>
      </trkpt>
      <trkpt lat="48.39213" lon="2.79193">
        <ele>38.2</ele>
        <time>2019-06-29T19:55:28Z</time>
      </trkpt>
      <trkpt lat="48.39324" lon="2.79043">
        <ele>29.2</ele>
        <time>2019-06-29T19:57:46Z</time>
      </trkpt>
      <trkpt lat="48.39588" lon="2.79091">
        <ele>33.4</ele>
        <time>2019-06-29T19:58:28Z</time>
      </trkpt>
      <trkpt lat="48.39802" lon="2.79172">
        <ele>47.5</ele>
        <time>2019-06-29T19:59:39Z</time>
      </trkpt>
      <trkpt lat="48.40008" lon="2.79349">
        <ele>41.2</ele>
        <time>2019-06-29T20:00:48Z</time>
      </trkpt>
      <trkpt lat="48.40074" lon="2.79428">
        <ele>41.1</ele>
        <time>2019-06-29T20:01:36Z</time>
      </trkpt>
      <trkpt lat="48.40388" lon="2.79669">
        <ele>45.7</ele>
        <time>2019-06-29T20:02:12Z</time>
      </trkpt>
      <trkpt lat="48.40582" lon="2.7976">
        <ele>37.1</ele>
        <time>2019-06-29T20:03:07Z</time>
      </trkpt>
      <trkpt lat="48.40579" lon="2.79855">
        <ele>40.1</ele>
        <time>2019-06-29T20:04:32Z</time>
      </trkpt>
      <trkpt lat="48.40561" lon="2.79928">
        <ele>38.4</ele>
        <time>2019-06-29T20:05:20Z</time>
      </trkpt>
      <trkpt lat="48.40573" lon="2.79979">
        <ele>44.7</ele>
        <time>2019-06-29T20:05:56Z</time>
      </trkpt>
      <trkpt lat="48.40572" lon="2.79997">
        <ele>48.1</ele>
        <time>2019-06-29T20:06:30Z</time>
      </trkpt>
      <trkpt lat="48.40555" lon="2.80009">
        <ele>45.6</ele>
        <time>2019-06-29T20:08:44Z</time>
      </trkpt>
      <trkpt lat="48.40543" lon="2.80035">
        <ele>46.3</ele>
        <time>2019-06-29T20:09:35Z</time>
      </trkpt>
      <trkpt lat="48.40569" lon="2.80067">
        <ele>55.8</ele>
        <time>2019-06-29T20:10:25Z</time>
      </trkpt>
      <trkpt lat="48.40605" lon="2.80078">
        <ele>59.8</ele>
        <time>2019-06-29T20:11:15Z</time>
      </trkpt>
      <trkpt lat="48.40614" lon="2.801">
        <ele>63.2</ele>
        <time>2019-06-29T20:12:16Z</time>
      </trkpt>
      <trkpt lat="48.40613" lon="2.80121">
        <ele>67.4</ele>
        <time>2019-06-29T20:13:12Z</time>
      </trkpt>
      <trkpt lat="48.40884" lon="2.79884">
        <ele>70.2</ele>
        <time>2019-06-29T20:14:11Z</time>
      </trkpt>
      <trkpt lat="48.41047" lon="2.79894">
        <ele>89.9</ele>
        <time>2019-06-29T20:15:26Z</time>
      </trkpt>
      <trkpt lat="48.41198" lon="2.79984">
        <ele>97</ele>
        <time>2019-06-29T20:16:07Z</time>
      </trkpt>
      <trkpt lat="48.41487" lon="2.79577">
        <ele>116.3</ele>
        <time>2019-06-29T20:16:44Z</time>
      </trkpt>
      <trkpt lat="48.41591" lon="2.79568">
        <ele>124.1</ele>
        <time>2019-06-29T20:19:04Z</time>
      </trkpt>
      <trkpt lat="48.41631" lon="2.79289">
        <ele>120.5</ele>
        <time>2019-06-29T20:19:58Z</time>
      </trkpt>
      <trkpt lat="48.41678" lon="2.78977">
        <ele>121.6</ele>
        <time>2019-06-29T20:21:21Z</time>
      </trkpt>
      <trkpt lat="48.41758" lon="2.78469">
        <ele>136.5</ele>
        <time>2019-06-29T20:22:09Z</time>
      </trkpt>
      <trkpt lat="48.41816" lon="2.78339">
        <ele>132.6</ele>
        <time>2019-06-29T20:23:44Z</time>
      </trkpt>
      <trkpt lat="48.41757" lon="2.78085">
        <ele>133.9</ele>
        <time>2019-06-29T20:25:59Z</time>
      </trkpt>
      <trkpt lat="48.41757" lon="2.77826">
        <ele>138.6</ele>
        <time>2019-06-29T20:32:00Z</time>
      </trkpt>
      <trkpt lat="48.41828" lon="2.77681">
        <ele>134.2</ele>
        <time>2019-06-29T20:36:14Z</time>
      </trkpt>
      <trkpt lat="48.41875" lon="2.77565">
        <ele>135.7</ele>
        <time>2019-06-29T20:40:31Z</time>
      </trkpt>
      <trkpt lat="48.41796" lon="2.77396">
        <ele>149.7</ele>
        <time>2019-06-29T20:43:42Z</time>
      </trkpt>
      <trkpt lat="48.4176" lon="2.77081">
        <ele>146</ele>
        <time>2019-06-29T20:48:46Z</time>
      </trkpt>
      <trkpt lat="48.41767" lon="2.76902">
        <ele>148.7</ele>
      </trkpt>
      <trkpt lat="48.41854" lon="2.7694">
        <ele>144.6</ele>
      </trkpt>
      <trkpt lat="48.41911" lon="2.76842">
        <ele>146.8</ele>
      </trkpt>
      <trkpt lat="48.42" lon="2.76358">
        <ele>124.3</ele>
      </trkpt>
      <trkpt lat="48.42027" lon="2.7617">
        <ele>115.2</ele>
      </trkpt>
      <trkpt lat="48.41919" lon="2.76078">
        <ele>111.5</ele>
      </trkpt>
      <trkpt lat="48.41793" lon="2.76067">
        <ele>106</ele>
      </trkpt>
      <trkpt lat="48.41649" lon="2.76137">
        <ele>94.7</ele>
      </trkpt>
      <trkpt lat="48.41605" lon="2.75937">
        <ele>79.5</ele>
      </trkpt>
      <trkpt lat="48.41469" lon="2.75855">
        <ele>68.4</ele>
      </trkpt>
      <trkpt lat="48.41325" lon="2.7604">
        <ele>42.7</ele>
      </trkpt>
      <trkpt lat="48.41224" lon="2.76007">
        <ele>45.2</ele>
      </trkpt>
      <trkpt lat="48.41166" lon="2.75899">
        <ele>40.5</ele>
      </trkpt>
      <trkpt lat="48.41217" lon="2.75378">
        <ele>40.7</ele>
      </trkpt>
      <trkpt lat="48.41249" lon="2.75183">
        <ele>39.9</ele>
      </trkpt>
      <trkpt lat="48.41423" lon="2.75012">
        <ele>32.9</ele>
      </trkpt>
      <trkpt lat="48.41519" lon="2.74901">
        <ele>20</ele>
      </trkpt>
      <trkpt lat="48.41746" lon="2.74798">
        <ele>3.1</ele>
      </trkpt>
      <trkpt lat="48.4208" lon="2.74755">
        <ele>7.8</ele>
      </trkpt>
      <trkpt lat="48.42982" lon="2.74669">
        <ele>38.7</ele>
      </trkpt>
      <trkpt lat="48.43617" lon="2.7469">
        <ele>40.8</ele>
      </trkpt>
      <trkpt lat="48.44217" lon="2.75032">
        <ele>59.9</ele>
      </trkpt>
      <trkpt lat="48.44608" lon="2.75442">
        <ele>51.7</ele>
      </trkpt>
      <trkpt lat="48.45124" lon="2.76283">
        <ele>48.2</ele>
      </trkpt>
    </trkseg>
  </trk>
</gpx>